sensor_id;sensor_type;location;lat;lon;timestamp;temperature;humidity
55365;DHT22;41245;45.384;20.390;2023-07-29T00:02:25;564.00;128.00
55365;DHT22;41245;45.384;20.390;2023-07-29T00:04:50;564.00;128.00
55365;DHT22;41245;45.384;20.390;2023-07-29T00:07:16;564.00;128.00
55365;DHT22;41245;45.384;20.390;2023-07-29T00:09:42;564.00;128.00
55365;DHT22;41245;45.384;20.390;2023-07-29T00:12:07;563.90;128.00
55365;DHT22;41245;45.384;20.390;2023-07-29T00:14:33;563.90;128.00
55365;DHT22;41245;45.384;20.390;2023-07-29T00:16:59;563.90;128.00
55365;DHT22;41245;45.384;20.390;2023-07-29T00:19:24;563.90;128.00
55365;DHT22;41245;45.384;20.390;2023-07-29T00:21:50;563.90;128.00
55365;DHT22;41245;45.384;20.390;2023-07-29T00:24:16;563.90;128.00
55365;DHT22;41245;45.384;20.390;2023-07-29T00:26:41;563.80;128.00
55365;DHT22;41245;45.384;20.390;2023-07-29T00:29:07;563.80;128.00
55365;DHT22;41245;45.384;20.390;2023-07-29T00:31:32;563.80;128.00
55365;DHT22;41245;45.384;20.390;2023-07-29T00:33:58;563.80;128.00
55365;DHT22;41245;45.384;20.390;2023-07-29T00:36:24;563.80;128.00
55365;DHT22;41245;45.384;20.390;2023-07-29T00:38:49;563.70;128.00
55365;DHT22;41245;45.384;20.390;2023-07-29T00:41:17;563.70;128.00
55365;DHT22;41245;45.384;20.390;2023-07-29T00:43:43;563.70;128.00
55365;DHT22;41245;45.384;20.390;2023-07-29T00:46:09;563.70;128.00
55365;DHT22;41245;45.384;20.390;2023-07-29T00:48:38;563.70;128.00
55365;DHT22;41245;45.384;20.390;2023-07-29T00:51:04;563.60;128.00
55365;DHT22;41245;45.384;20.390;2023-07-29T00:53:30;563.40;128.00
55365;DHT22;41245;45.384;20.390;2023-07-29T00:55:55;563.60;128.00
55365;DHT22;41245;45.384;20.390;2023-07-29T00:58:21;563.80;128.00
55365;DHT22;41245;45.384;20.390;2023-07-29T01:00:47;563.60;128.00
55365;DHT22;41245;45.384;20.390;2023-07-29T01:03:13;563.60;128.00
55365;DHT22;41245;45.384;20.390;2023-07-29T01:09:25;563.60;128.00
55365;DHT22;41245;45.384;20.390;2023-07-29T01:12:13;563.60;128.00
55365;DHT22;41245;45.384;20.390;2023-07-29T01:15:32;563.70;128.00
55365;DHT22;41245;45.384;20.390;2023-07-29T01:17:35;563.70;128.00
55365;DHT22;41245;45.384;20.390;2023-07-29T01:20:07;563.60;128.00
55365;DHT22;41245;45.384;20.390;2023-07-29T01:22:35;563.40;128.00
55365;DHT22;41245;45.384;20.390;2023-07-29T01:25:02;563.50;128.00
55365;DHT22;41245;45.384;20.390;2023-07-29T01:27:28;563.50;153.60
55365;DHT22;41245;45.384;20.390;2023-07-29T01:29:54;563.60;128.00
55365;DHT22;41245;45.384;20.390;2023-07-29T01:32:30;563.50;128.00
55365;DHT22;41245;45.384;20.390;2023-07-29T01:36:11;563.50;128.00
55365;DHT22;41245;45.384;20.390;2023-07-29T01:38:30;563.50;128.00
55365;DHT22;41245;45.384;20.390;2023-07-29T01:41:01;563.50;128.00
55365;DHT22;41245;45.384;20.390;2023-07-29T01:43:31;563.40;128.00
55365;DHT22;41245;45.384;20.390;2023-07-29T01:45:57;563.40;128.00
55365;DHT22;41245;45.384;20.390;2023-07-29T01:48:23;563.30;153.60
55365;DHT22;41245;45.384;20.390;2023-07-29T01:50:49;563.30;179.20
55365;DHT22;41245;45.384;20.390;2023-07-29T01:53:15;563.30;128.00
55365;DHT22;41245;45.384;20.390;2023-07-29T01:55:42;563.30;128.00
55365;DHT22;41245;45.384;20.390;2023-07-29T01:58:07;563.30;128.00
55365;DHT22;41245;45.384;20.390;2023-07-29T02:00:33;563.20;128.00
55365;DHT22;41245;45.384;20.390;2023-07-29T02:02:59;563.20;128.00
55365;DHT22;41245;45.384;20.390;2023-07-29T02:05:24;563.20;128.00
55365;DHT22;41245;45.384;20.390;2023-07-29T02:07:50;563.20;128.00
55365;DHT22;41245;45.384;20.390;2023-07-29T02:10:16;538.50;128.00
55365;DHT22;41245;45.384;20.390;2023-07-29T02:12:41;538.40;128.00
55365;DHT22;41245;45.384;20.390;2023-07-29T02:15:07;538.40;128.00
55365;DHT22;41245;45.384;20.390;2023-07-29T02:17:33;538.40;128.00
55365;DHT22;41245;45.384;20.390;2023-07-29T02:19:59;538.40;128.00
55365;DHT22;41245;45.384;20.390;2023-07-29T02:22:25;538.40;128.00
55365;DHT22;41245;45.384;20.390;2023-07-29T02:24:50;538.40;128.00
55365;DHT22;41245;45.384;20.390;2023-07-29T02:27:16;538.40;128.00
55365;DHT22;41245;45.384;20.390;2023-07-29T02:29:42;538.30;128.00
55365;DHT22;41245;45.384;20.390;2023-07-29T02:32:07;538.30;128.00
55365;DHT22;41245;45.384;20.390;2023-07-29T02:34:33;538.30;128.00
55365;DHT22;41245;45.384;20.390;2023-07-29T02:36:59;538.20;128.00
55365;DHT22;41245;45.384;20.390;2023-07-29T02:39:25;538.40;128.00
55365;DHT22;41245;45.384;20.390;2023-07-29T02:41:51;538.30;128.00
55365;DHT22;41245;45.384;20.390;2023-07-29T02:44:17;538.20;128.00
55365;DHT22;41245;45.384;20.390;2023-07-29T02:46:43;538.40;128.00
55365;DHT22;41245;45.384;20.390;2023-07-29T02:49:08;538.30;128.00
55365;DHT22;41245;45.384;20.390;2023-07-29T03:28:26;538.40;128.00
55365;DHT22;41245;45.384;20.390;2023-07-29T03:30:56;538.20;128.00
55365;DHT22;41245;45.384;20.390;2023-07-29T03:33:22;538.10;128.00
55365;DHT22;41245;45.384;20.390;2023-07-29T03:35:48;538.00;128.00
55365;DHT22;41245;45.384;20.390;2023-07-29T03:38:14;538.00;128.00
55365;DHT22;41245;45.384;20.390;2023-07-29T03:40:40;538.20;128.00
55365;DHT22;41245;45.384;20.390;2023-07-29T03:43:07;538.20;128.00
55365;DHT22;41245;45.384;20.390;2023-07-29T03:45:34;538.20;128.00
55365;DHT22;41245;45.384;20.390;2023-07-29T03:47:59;538.40;128.00
55365;DHT22;41245;45.384;20.390;2023-07-29T03:50:25;538.40;128.00
55365;DHT22;41245;45.384;20.390;2023-07-29T03:52:51;563.20;128.00
55365;DHT22;41245;45.384;20.390;2023-07-29T03:55:17;563.30;128.00
55365;DHT22;41245;45.384;20.390;2023-07-29T03:57:43;538.50;128.00
55365;DHT22;41245;45.384;20.390;2023-07-29T04:00:09;563.30;128.00
55365;DHT22;41245;45.384;20.390;2023-07-29T04:02:36;563.40;128.00
55365;DHT22;41245;45.384;20.390;2023-07-29T04:05:05;563.40;128.00
55365;DHT22;41245;45.384;20.390;2023-07-29T04:07:34;563.50;128.00
55365;DHT22;41245;45.384;20.390;2023-07-29T04:10:00;563.50;128.00
55365;DHT22;41245;45.384;20.390;2023-07-29T04:12:26;563.50;128.00
55365;DHT22;41245;45.384;20.390;2023-07-29T04:14:52;563.40;128.00
55365;DHT22;41245;45.384;20.390;2023-07-29T04:17:18;563.50;128.00
55365;DHT22;41245;45.384;20.390;2023-07-29T04:19:44;563.50;128.00
55365;DHT22;41245;45.384;20.390;2023-07-29T04:22:10;563.60;128.00
55365;DHT22;41245;45.384;20.390;2023-07-29T04:24:35;563.60;128.00
55365;DHT22;41245;45.384;20.390;2023-07-29T04:27:01;563.80;128.00
55365;DHT22;41245;45.384;20.390;2023-07-29T04:29:27;563.80;128.00
55365;DHT22;41245;45.384;20.390;2023-07-29T04:31:52;563.80;128.00
55365;DHT22;41245;45.384;20.390;2023-07-29T04:34:19;589.00;128.00
55365;DHT22;41245;45.384;20.390;2023-07-29T05:35:22;717.30;793.60
